createdAt,value
2023-04-26T00:00:19.185Z,537.00
2023-04-26T00:01:19.223Z,537.00
2023-04-26T00:02:19.396Z,534.00
2023-04-26T00:03:19.424Z,533.00
2023-04-26T00:04:19.516Z,534.00
2023-04-26T00:05:19.573Z,537.00
2023-04-26T00:06:19.360Z,537.00
2023-04-26T00:07:19.415Z,532.00
2023-04-26T00:08:19.438Z,540.00
2023-04-26T00:09:19.483Z,538.00
2023-04-26T00:10:19.494Z,534.00
2023-04-26T00:11:19.522Z,532.00
2023-04-26T00:12:19.567Z,534.00
2023-04-26T00:13:19.582Z,532.00
2023-04-26T00:14:19.612Z,529.00
2023-04-26T00:15:19.656Z,531.00
2023-04-26T00:16:19.711Z,535.00
2023-04-26T00:17:19.718Z,533.00
2023-04-26T00:18:19.767Z,533.00
2023-04-26T00:19:19.773Z,532.00
2023-04-26T00:20:19.806Z,531.00
2023-04-26T00:21:19.819Z,536.00
2023-04-26T00:22:19.846Z,530.00
2023-04-26T00:23:19.882Z,533.00
2023-04-26T00:24:19.916Z,534.00
2023-04-26T00:25:19.948Z,530.00
2023-04-26T00:26:19.954Z,530.00
2023-04-26T00:27:19.982Z,532.00
2023-04-26T00:28:20.003Z,528.00
2023-04-26T00:29:20.034Z,526.00
2023-04-26T00:30:20.075Z,534.00
2023-04-26T00:31:20.133Z,530.00
2023-04-26T00:32:20.182Z,527.00
2023-04-26T00:33:20.131Z,530.00
2023-04-26T00:34:20.196Z,530.00
2023-04-26T00:35:20.173Z,527.00
2023-04-26T00:36:20.204Z,527.00
2023-04-26T00:37:20.974Z,529.00
2023-04-26T00:38:20.243Z,525.00
2023-04-26T00:39:20.279Z,531.00
2023-04-26T00:40:20.310Z,526.00
2023-04-26T00:41:20.353Z,528.00
2023-04-26T00:42:20.373Z,525.00
2023-04-26T00:43:20.974Z,528.00
2023-04-26T00:44:20.443Z,527.00
2023-04-26T00:45:20.451Z,527.00
2023-04-26T00:46:20.587Z,529.00
2023-04-26T00:47:20.482Z,528.00
2023-04-26T00:48:20.502Z,530.00
2023-04-26T00:49:20.528Z,531.00
2023-04-26T00:50:20.552Z,527.00
2023-04-26T00:51:20.575Z,528.00
2023-04-26T00:52:20.599Z,529.00
2023-04-26T00:53:20.626Z,529.00
2023-04-26T00:54:20.659Z,529.00
2023-04-26T00:55:20.729Z,529.00
2023-04-26T00:56:20.704Z,530.00
2023-04-26T00:57:20.718Z,529.00
2023-04-26T00:58:20.732Z,526.00
2023-04-26T00:59:20.817Z,531.00
2023-04-26T01:00:20.797Z,532.00
2023-04-26T01:01:20.860Z,528.00
2023-04-26T01:02:20.946Z,525.00
2023-04-26T01:03:20.937Z,526.00
2023-04-26T01:04:21.000Z,531.00
2023-04-26T01:05:20.916Z,522.00
2023-04-26T01:06:20.936Z,531.00
2023-04-26T01:07:20.961Z,527.00
2023-04-26T01:08:21.150Z,528.00
2023-04-26T01:09:21.019Z,527.00
2023-04-26T01:10:21.038Z,526.00
2023-04-26T01:11:21.065Z,523.00
2023-04-26T01:12:21.088Z,523.00
2023-04-26T01:13:21.115Z,525.00
2023-04-26T01:14:21.151Z,528.00
2023-04-26T01:15:21.173Z,528.00
2023-04-26T01:16:21.211Z,528.00
2023-04-26T01:17:21.265Z,527.00
2023-04-26T01:18:21.247Z,521.00
2023-04-26T01:19:21.274Z,528.00
2023-04-26T01:20:21.292Z,524.00
2023-04-26T01:21:21.317Z,526.00
2023-04-26T01:22:21.345Z,525.00
2023-04-26T01:23:21.356Z,523.00
2023-04-26T01:24:21.387Z,521.00
2023-04-26T01:25:21.402Z,518.00
2023-04-26T01:26:21.412Z,526.00
2023-04-26T01:27:21.457Z,524.00
2023-04-26T01:28:21.483Z,520.00
2023-04-26T01:29:21.530Z,523.00
2023-04-26T01:30:21.531Z,521.00
2023-04-26T01:31:21.608Z,517.00
2023-04-26T01:32:21.585Z,524.00
2023-04-26T01:33:21.629Z,526.00
2023-04-26T01:34:21.656Z,518.00
2023-04-26T01:35:21.675Z,522.00
2023-04-26T01:36:21.684Z,529.00
2023-04-26T01:37:21.706Z,527.00
2023-04-26T01:38:21.730Z,521.00
2023-04-26T01:39:21.741Z,521.00
2023-04-26T01:40:21.786Z,522.00
2023-04-26T01:41:21.792Z,520.00
2023-04-26T01:42:21.826Z,524.00
2023-04-26T01:43:21.860Z,520.00
2023-04-26T01:44:21.880Z,522.00
2023-04-26T01:45:21.907Z,521.00
2023-04-26T01:46:21.986Z,521.00
2023-04-26T01:47:21.997Z,526.00
2023-04-26T01:48:22.046Z,520.00
2023-04-26T01:49:22.029Z,520.00
2023-04-26T01:50:22.061Z,530.00
2023-04-26T01:51:22.084Z,518.00
2023-04-26T01:52:22.126Z,522.00
2023-04-26T01:53:22.135Z,521.00
2023-04-26T01:54:22.174Z,523.00
2023-04-26T01:55:22.192Z,526.00
2023-04-26T01:56:22.214Z,523.00
2023-04-26T01:57:22.242Z,525.00
2023-04-26T01:58:22.263Z,529.00
2023-04-26T01:59:22.306Z,517.00
2023-04-26T02:00:22.323Z,526.00
2023-04-26T02:01:22.428Z,524.00
2023-04-26T02:02:22.433Z,524.00
2023-04-26T02:03:22.489Z,522.00
2023-04-26T02:04:22.452Z,521.00
2023-04-26T02:05:22.691Z,519.00
2023-04-26T02:06:22.506Z,520.00
2023-04-26T02:07:22.535Z,524.00
2023-04-26T02:08:22.574Z,520.00
2023-04-26T02:09:22.584Z,524.00
2023-04-26T02:10:22.623Z,516.00
2023-04-26T02:11:22.649Z,518.00
2023-04-26T02:12:22.699Z,522.00
2023-04-26T02:13:22.718Z,520.00
2023-04-26T02:14:22.742Z,520.00
2023-04-26T02:15:22.768Z,523.00
2023-04-26T02:16:22.826Z,518.00
2023-04-26T02:17:22.815Z,520.00
2023-04-26T02:18:22.850Z,527.00
2023-04-26T02:19:22.876Z,519.00
2023-04-26T02:20:22.919Z,520.00
2023-04-26T02:21:22.948Z,516.00
2023-04-26T02:22:22.965Z,520.00
2023-04-26T02:23:22.985Z,525.00
2023-04-26T02:24:23.037Z,524.00
2023-04-26T02:25:23.173Z,517.00
2023-04-26T02:26:23.087Z,520.00
2023-04-26T02:27:23.106Z,517.00
2023-04-26T02:28:23.141Z,522.00
2023-04-26T02:29:36.233Z,519.00
2023-04-26T02:30:24.138Z,519.00
2023-04-26T02:31:23.369Z,520.00
2023-04-26T02:32:23.098Z,520.00
2023-04-26T02:33:23.020Z,520.00
2023-04-26T02:34:22.997Z,519.00
2023-04-26T02:35:22.949Z,519.00
2023-04-26T02:36:22.906Z,519.00
2023-04-26T02:37:22.863Z,523.00
2023-04-26T02:38:22.821Z,519.00
2023-04-26T02:39:22.816Z,519.00
2023-04-26T02:40:22.854Z,523.00
2023-04-26T02:41:22.865Z,521.00
2023-04-26T02:42:22.893Z,518.00
2023-04-26T02:43:22.920Z,522.00
2023-04-26T02:44:22.948Z,519.00
2023-04-26T02:45:22.963Z,523.00
2023-04-26T02:46:23.011Z,518.00
2023-04-26T02:47:23.056Z,524.00
2023-04-26T02:48:23.044Z,517.00
2023-04-26T02:49:23.086Z,518.00
2023-04-26T02:50:23.105Z,520.00
2023-04-26T02:51:23.143Z,515.00
2023-04-26T02:52:23.167Z,518.00
2023-04-26T02:53:23.198Z,518.00
2023-04-26T02:54:23.222Z,517.00
2023-04-26T02:55:23.299Z,519.00
2023-04-26T02:56:23.276Z,516.00
2023-04-26T02:57:23.300Z,515.00
2023-04-26T02:58:23.362Z,522.00
2023-04-26T02:59:23.364Z,517.00
2023-04-26T03:00:23.383Z,521.00
2023-04-26T03:01:23.434Z,515.00
2023-04-26T03:02:23.517Z,513.00
2023-04-26T03:03:23.745Z,519.00
2023-04-26T03:04:23.518Z,519.00
2023-04-26T03:05:23.477Z,517.00
2023-04-26T03:06:23.501Z,522.00
2023-04-26T03:07:23.538Z,522.00
2023-04-26T03:08:23.569Z,517.00
2023-04-26T03:09:23.594Z,515.00
2023-04-26T03:10:23.627Z,513.00
2023-04-26T03:11:23.655Z,518.00
2023-04-26T03:12:23.685Z,515.00
2023-04-26T03:13:23.712Z,513.00
2023-04-26T03:14:23.738Z,514.00
2023-04-26T03:15:23.773Z,518.00
2023-04-26T03:16:23.917Z,521.00
2023-04-26T03:17:23.862Z,514.00
2023-04-26T03:18:23.869Z,517.00
2023-04-26T03:19:23.876Z,512.00
2023-04-26T03:20:23.905Z,520.00
2023-04-26T03:21:23.932Z,519.00
2023-04-26T03:22:23.957Z,514.00
2023-04-26T03:23:23.993Z,517.00
2023-04-26T03:24:24.036Z,517.00
2023-04-26T03:25:24.056Z,514.00
2023-04-26T03:26:24.096Z,518.00
2023-04-26T03:27:24.142Z,515.00
2023-04-26T03:28:24.168Z,516.00
2023-04-26T03:29:24.238Z,517.00
2023-04-26T03:30:24.229Z,512.00
2023-04-26T03:31:24.321Z,521.00
2023-04-26T03:32:24.297Z,511.00
2023-04-26T03:33:24.342Z,513.00
2023-04-26T03:34:24.382Z,520.00
2023-04-26T03:35:24.572Z,512.00
2023-04-26T03:36:24.449Z,518.00
2023-04-26T03:37:24.471Z,515.00
2023-04-26T03:38:24.493Z,511.00
2023-04-26T03:39:24.539Z,512.00
2023-04-26T03:40:24.578Z,512.00
2023-04-26T03:41:24.597Z,513.00
2023-04-26T03:42:24.636Z,516.00
2023-04-26T03:43:24.649Z,510.00
2023-04-26T03:44:24.668Z,518.00
2023-04-26T03:45:24.721Z,512.00
2023-04-26T03:46:24.794Z,513.00
2023-04-26T03:47:24.842Z,508.00
2023-04-26T03:48:24.814Z,509.00
2023-04-26T03:49:24.848Z,511.00
2023-04-26T03:50:24.885Z,513.00
2023-04-26T03:51:24.894Z,507.00
2023-04-26T03:52:24.916Z,514.00
2023-04-26T03:53:24.948Z,514.00
2023-04-26T03:54:25.017Z,513.00
2023-04-26T03:55:25.007Z,511.00
2023-04-26T03:56:25.034Z,517.00
2023-04-26T03:57:25.060Z,510.00
2023-04-26T03:58:25.104Z,509.00
2023-04-26T03:59:25.105Z,516.00
2023-04-26T04:00:25.128Z,512.00
2023-04-26T04:01:25.148Z,511.00
2023-04-26T04:02:25.249Z,511.00
2023-04-26T04:03:25.471Z,513.00
2023-04-26T04:04:25.432Z,514.00
2023-04-26T04:05:25.312Z,510.00
2023-04-26T04:06:25.276Z,512.00
2023-04-26T04:07:25.307Z,508.00
2023-04-26T04:08:25.333Z,513.00
2023-04-26T04:09:25.367Z,512.00
2023-04-26T04:10:25.376Z,513.00
2023-04-26T04:11:25.400Z,510.00
2023-04-26T04:12:25.425Z,513.00
2023-04-26T04:13:25.438Z,513.00
2023-04-26T04:14:25.469Z,511.00
2023-04-26T04:15:25.520Z,511.00
2023-04-26T04:16:25.569Z,506.00
2023-04-26T04:17:25.553Z,512.00
2023-04-26T04:18:25.590Z,507.00
2023-04-26T04:19:25.616Z,510.00
2023-04-26T04:20:25.640Z,510.00
2023-04-26T04:21:25.635Z,511.00
2023-04-26T04:22:25.662Z,509.00
2023-04-26T04:23:25.687Z,513.00
2023-04-26T04:24:25.762Z,511.00
2023-04-26T04:25:25.749Z,507.00
2023-04-26T04:26:25.805Z,510.00
2023-04-26T04:27:25.794Z,505.00
2023-04-26T04:28:25.833Z,505.00
2023-04-26T04:29:25.871Z,509.00
2023-04-26T04:30:25.915Z,506.00
2023-04-26T04:31:25.979Z,508.00
2023-04-26T04:32:26.000Z,511.00
2023-04-26T04:33:26.001Z,505.00
2023-04-26T04:34:26.056Z,515.00
2023-04-26T04:35:26.075Z,506.00
2023-04-26T04:36:26.103Z,502.00
2023-04-26T04:37:26.127Z,505.00
2023-04-26T04:38:26.167Z,505.00
2023-04-26T04:39:26.193Z,503.00
2023-04-26T04:40:26.229Z,507.00
2023-04-26T04:41:26.255Z,507.00
2023-04-26T04:42:26.296Z,512.00
2023-04-26T04:43:26.317Z,504.00
2023-04-26T04:44:26.360Z,503.00
2023-04-26T04:45:26.384Z,502.00
2023-04-26T04:46:26.469Z,503.00
2023-04-26T04:47:26.565Z,505.00
2023-04-26T04:48:26.479Z,503.00
2023-04-26T04:49:26.502Z,512.00
2023-04-26T04:50:26.544Z,508.00
2023-04-26T04:51:26.579Z,503.00
2023-04-26T04:52:26.596Z,508.00
2023-04-26T04:53:26.621Z,507.00
2023-04-26T04:54:26.653Z,503.00
2023-04-26T04:55:26.675Z,510.00
2023-04-26T04:56:26.719Z,501.00
2023-04-26T04:57:26.745Z,508.00
2023-04-26T04:58:26.767Z,509.00
2023-04-26T05:00:26.820Z,506.00
2023-04-26T05:01:26.905Z,504.00
2023-04-26T05:02:26.986Z,510.00
2023-04-26T05:03:26.998Z,509.00
2023-04-26T05:04:27.177Z,509.00
2023-04-26T05:05:26.988Z,513.00
2023-04-26T05:06:27.009Z,523.00
2023-04-26T05:07:28.958Z,531.00
2023-04-26T05:08:27.066Z,535.00
2023-04-26T05:09:27.098Z,562.00
2023-04-26T05:10:27.121Z,600.00
2023-04-26T05:11:27.128Z,631.00
2023-04-26T05:12:27.202Z,655.00
2023-04-26T05:13:27.155Z,634.00
2023-04-26T05:14:27.187Z,629.00
2023-04-26T05:15:27.243Z,608.00
2023-04-26T05:16:27.268Z,611.00
2023-04-26T05:17:27.251Z,626.00
2023-04-26T05:18:28.170Z,626.00
2023-04-26T05:19:27.159Z,629.00
2023-04-26T05:20:27.129Z,637.00
2023-04-26T05:21:27.121Z,649.00
2023-04-26T05:22:27.618Z,660.00
2023-04-26T05:23:27.086Z,627.00
2023-04-26T05:24:27.093Z,630.00
2023-04-26T05:25:27.079Z,626.00
2023-04-26T05:26:27.067Z,603.00
2023-04-26T05:27:27.033Z,532.00
2023-04-26T05:28:27.044Z,522.00
2023-04-26T05:29:27.635Z,547.00
2023-04-26T05:30:26.989Z,565.00
2023-04-26T05:31:27.221Z,569.00
2023-04-26T05:32:26.953Z,521.00
2023-04-26T05:33:26.939Z,501.00
2023-04-26T05:34:26.946Z,495.00
2023-04-26T05:35:26.911Z,495.00
2023-04-26T05:36:29.160Z,547.00
2023-04-26T05:37:29.831Z,576.00
2023-04-26T05:38:26.809Z,578.00
2023-04-26T05:39:26.778Z,581.00
2023-04-26T05:40:26.788Z,583.00
2023-04-26T05:41:26.733Z,587.00
2023-04-26T05:42:26.706Z,599.00
2023-04-26T05:43:28.255Z,577.00
2023-04-26T05:44:26.643Z,578.00
2023-04-26T05:45:26.650Z,587.00
2023-04-26T05:46:27.234Z,601.00
2023-04-26T05:47:26.700Z,579.00
2023-04-26T05:48:26.655Z,580.00
2023-04-26T05:49:26.573Z,595.00
2023-04-26T05:50:28.169Z,616.00
2023-04-26T05:51:26.522Z,641.00
2023-04-26T05:52:26.475Z,671.00
2023-04-26T05:53:26.601Z,664.00
2023-04-26T05:54:26.412Z,656.00
2023-04-26T05:55:26.388Z,648.00
2023-04-26T05:56:26.347Z,646.00
2023-04-26T05:57:26.384Z,658.00
2023-04-26T05:58:26.279Z,668.00
2023-04-26T05:59:26.338Z,681.00
2023-04-26T06:00:26.350Z,671.00
2023-04-26T06:01:26.381Z,700.00
2023-04-26T06:02:26.494Z,737.00
2023-04-26T06:03:26.572Z,737.00
2023-04-26T06:04:26.725Z,759.00
2023-04-26T06:05:26.562Z,778.00
2023-04-26T06:06:26.688Z,794.00
2023-04-26T06:07:26.525Z,821.00
2023-04-26T06:08:26.553Z,856.00
2023-04-26T06:09:26.616Z,871.00
2023-04-26T06:10:26.653Z,860.00
2023-04-26T06:11:26.653Z,870.00
2023-04-26T06:12:26.689Z,858.00
2023-04-26T06:13:26.725Z,868.00
2023-04-26T06:14:30.517Z,874.00
2023-04-26T06:15:26.725Z,875.00
2023-04-26T06:16:26.734Z,878.00
2023-04-26T06:17:26.681Z,886.00
2023-04-26T06:18:26.630Z,904.00
2023-04-26T06:19:26.591Z,940.00
2023-04-26T06:20:26.588Z,934.00
2023-04-26T06:21:26.549Z,952.00
2023-04-26T06:22:26.513Z,859.00
2023-04-26T06:23:26.507Z,818.00
2023-04-26T06:24:26.453Z,805.00
2023-04-26T06:25:26.435Z,803.00
2023-04-26T06:26:26.394Z,828.00
2023-04-26T06:27:26.375Z,866.00
2023-04-26T06:28:26.347Z,891.00
2023-04-26T06:29:26.316Z,898.00
2023-04-26T06:30:26.298Z,927.00
2023-04-26T06:31:26.292Z,940.00
2023-04-26T06:32:26.254Z,952.00
2023-04-26T06:33:26.188Z,951.00
2023-04-26T06:34:26.180Z,967.00
2023-04-26T06:35:26.126Z,970.00
2023-04-26T06:36:26.110Z,984.00
2023-04-26T06:37:26.075Z,996.00
2023-04-26T06:38:26.021Z,1007.00
2023-04-26T06:39:25.996Z,1006.00
2023-04-26T06:40:25.969Z,1028.00
2023-04-26T06:41:25.986Z,1040.00
2023-04-26T06:42:26.578Z,1042.00
2023-04-26T06:43:26.038Z,1041.00
2023-04-26T06:44:26.056Z,979.00
2023-04-26T06:45:26.116Z,965.00
2023-04-26T06:46:26.172Z,1044.00
2023-04-26T06:47:26.202Z,1033.00
2023-04-26T06:48:26.201Z,1039.00
2023-04-26T06:49:26.243Z,1021.00
2023-04-26T06:50:26.330Z,1054.00
2023-04-26T06:51:26.307Z,1050.00
2023-04-26T06:52:26.359Z,1023.00
2023-04-26T06:53:26.379Z,975.00
2023-04-26T06:54:26.406Z,1027.00
2023-04-26T06:55:26.461Z,1026.00
2023-04-26T06:56:26.507Z,998.00
2023-04-26T06:57:26.537Z,992.00
2023-04-26T06:58:26.572Z,933.00
2023-04-26T06:59:26.610Z,971.00
2023-04-26T07:00:26.683Z,984.00
2023-04-26T07:01:26.733Z,1024.00
2023-04-26T07:02:26.881Z,1035.00
2023-04-26T07:03:26.924Z,1042.00
2023-04-26T07:04:26.982Z,1054.00
2023-04-26T07:05:26.838Z,1069.00
2023-04-26T07:06:26.873Z,1072.00
2023-04-26T07:07:26.930Z,1084.00
2023-04-26T07:08:26.965Z,1071.00
2023-04-26T07:09:26.984Z,983.00
2023-04-26T07:10:27.298Z,990.00
2023-04-26T07:11:27.118Z,1010.00
2023-04-26T07:12:27.032Z,1011.00
2023-04-26T07:13:28.194Z,1012.00
2023-04-26T07:14:26.982Z,993.00
2023-04-26T07:15:26.950Z,949.00
2023-04-26T07:16:27.181Z,948.00
2023-04-26T07:17:26.898Z,959.00
2023-04-26T07:18:27.692Z,983.00
2023-04-26T07:19:26.840Z,986.00
2023-04-26T07:20:27.184Z,1012.00
2023-04-26T07:21:26.830Z,1033.00
2023-04-26T07:22:27.603Z,1012.00
2023-04-26T07:23:26.718Z,987.00
2023-04-26T07:24:26.717Z,1005.00
2023-04-26T07:25:26.658Z,1031.00
2023-04-26T07:26:27.150Z,1079.00
2023-04-26T07:27:26.639Z,1115.00
2023-04-26T07:28:26.667Z,1151.00
2023-04-26T07:29:26.689Z,1210.00
2023-04-26T07:30:26.732Z,1200.00
2023-04-26T07:31:26.725Z,1209.00
2023-04-26T07:32:26.919Z,1205.00
2023-04-26T07:33:26.847Z,1210.00
2023-04-26T07:34:26.795Z,1222.00
2023-04-26T07:35:27.611Z,1196.00
2023-04-26T07:36:26.845Z,1196.00
2023-04-26T07:37:28.701Z,1186.00
2023-04-26T07:38:28.716Z,1196.00
2023-04-26T07:39:27.685Z,1223.00
2023-04-26T07:40:27.859Z,1224.00
2023-04-26T07:41:26.861Z,1200.00
2023-04-26T07:42:27.655Z,1106.00
2023-04-26T07:43:26.768Z,1138.00
2023-04-26T07:44:26.742Z,1063.00
2023-04-26T07:45:26.774Z,1006.00
2023-04-26T07:46:26.753Z,972.00
2023-04-26T07:47:26.688Z,885.00
2023-04-26T07:48:26.627Z,890.00
2023-04-26T07:49:26.651Z,915.00
2023-04-26T07:50:26.574Z,854.00
2023-04-26T07:51:26.527Z,858.00
2023-04-26T07:52:26.500Z,866.00
2023-04-26T07:53:26.484Z,883.00
2023-04-26T07:54:27.210Z,873.00
2023-04-26T07:55:26.426Z,859.00
2023-04-26T07:56:31.397Z,889.00
2023-04-26T07:57:26.316Z,892.00
2023-04-26T07:58:26.295Z,872.00
2023-04-26T07:59:26.266Z,891.00
2023-04-26T08:00:26.237Z,860.00
2023-04-26T08:01:26.219Z,859.00
2023-04-26T08:02:41.061Z,834.00
2023-04-26T08:03:27.372Z,766.00
2023-04-26T08:04:26.175Z,738.00
2023-04-26T08:05:26.856Z,750.00
2023-04-26T08:06:26.115Z,788.00
2023-04-26T08:07:26.016Z,753.00
2023-04-26T08:08:25.984Z,659.00
2023-04-26T08:09:25.961Z,650.00
2023-04-26T08:10:25.944Z,639.00
2023-04-26T08:11:25.925Z,633.00
2023-04-26T08:12:26.876Z,639.00
2023-04-26T08:13:29.304Z,640.00
2023-04-26T08:14:25.840Z,640.00
2023-04-26T08:15:25.809Z,641.00
2023-04-26T08:16:25.896Z,639.00
2023-04-26T08:17:25.847Z,625.00
2023-04-26T08:18:25.726Z,625.00
2023-04-26T08:19:26.728Z,580.00
2023-04-26T08:20:25.692Z,500.00
2023-04-26T08:21:25.668Z,493.00
2023-04-26T08:22:26.213Z,499.00
2023-04-26T08:23:25.610Z,502.00
2023-04-26T08:24:25.589Z,493.00
2023-04-26T08:25:25.568Z,500.00
2023-04-26T08:26:25.529Z,469.00
2023-04-26T08:27:25.505Z,467.00
2023-04-26T08:28:25.472Z,444.00
2023-04-26T08:29:25.451Z,427.00
2023-04-26T08:30:25.423Z,400.00
2023-04-26T08:31:25.470Z,400.00
2023-04-26T08:32:25.371Z,400.00
2023-04-26T08:33:25.322Z,400.00
2023-04-26T08:34:25.273Z,429.00
2023-04-26T08:35:25.232Z,473.00
2023-04-26T08:36:25.196Z,511.00
2023-04-26T08:37:25.342Z,534.00
2023-04-26T08:38:25.225Z,561.00
2023-04-26T08:39:25.246Z,592.00
2023-04-26T08:40:25.288Z,608.00
2023-04-26T08:41:25.282Z,633.00
2023-04-26T08:42:26.221Z,675.00
2023-04-26T08:43:25.267Z,679.00
2023-04-26T08:44:25.357Z,704.00
2023-04-26T08:45:25.238Z,771.00
2023-04-26T08:46:25.212Z,876.00
2023-04-26T08:47:25.529Z,1047.00
2023-04-26T08:48:25.160Z,1090.00
2023-04-26T08:49:25.081Z,1151.00
2023-04-26T08:50:25.027Z,1186.00
2023-04-26T08:51:24.992Z,1238.00
2023-04-26T08:52:25.740Z,1240.00
2023-04-26T08:53:24.918Z,1249.00
2023-04-26T08:54:25.728Z,1268.00
2023-04-26T08:55:24.853Z,1315.00
2023-04-26T08:56:24.810Z,1376.00
2023-04-26T08:57:24.790Z,1420.00
2023-04-26T08:58:24.745Z,1457.00
2023-04-26T08:59:24.715Z,1477.00
2023-04-26T09:00:25.231Z,1462.00
2023-04-26T09:01:24.678Z,1494.00
2023-04-26T09:02:24.856Z,1499.00
2023-04-26T09:03:24.784Z,1518.00
2023-04-26T09:04:25.492Z,1516.00
2023-04-26T09:05:25.053Z,1520.00
2023-04-26T09:06:24.768Z,1534.00
2023-04-26T09:07:25.741Z,1531.00
2023-04-26T09:08:24.935Z,1521.00
2023-04-26T09:09:24.840Z,1517.00
2023-04-26T09:10:24.874Z,1518.00
2023-04-26T09:11:24.905Z,1523.00
2023-04-26T09:12:24.924Z,1523.00
2023-04-26T09:13:24.960Z,1520.00
2023-04-26T09:14:24.997Z,1568.00
2023-04-26T09:15:24.993Z,1623.00
2023-04-26T09:16:25.062Z,1638.00
2023-04-26T09:17:25.055Z,1701.00
2023-04-26T09:18:25.035Z,1728.00
2023-04-26T09:19:25.069Z,1712.00
2023-04-26T09:20:25.065Z,1748.00
2023-04-26T09:21:25.131Z,1719.00
2023-04-26T09:22:25.187Z,1630.00
2023-04-26T09:23:25.184Z,1582.00
2023-04-26T09:24:26.750Z,1529.00
2023-04-26T09:25:25.746Z,1543.00
2023-04-26T09:26:25.172Z,1519.00
2023-04-26T09:27:25.158Z,1556.00
2023-04-26T09:28:26.178Z,1631.00
2023-04-26T09:29:25.144Z,1645.00
2023-04-26T09:30:25.128Z,1702.00
2023-04-26T09:31:25.144Z,1800.00
2023-04-26T09:32:25.091Z,1934.00
2023-04-26T09:33:25.126Z,1985.00
2023-04-26T09:34:25.077Z,1952.00
2023-04-26T09:35:25.070Z,1923.00
2023-04-26T09:36:25.068Z,1902.00
2023-04-26T09:37:25.045Z,1880.00
2023-04-26T09:38:25.736Z,1911.00
2023-04-26T09:39:25.028Z,1869.00
2023-04-26T09:40:25.015Z,1838.00
2023-04-26T09:41:25.018Z,1868.00
2023-04-26T09:42:25.002Z,1778.00
2023-04-26T09:43:25.011Z,1630.00
2023-04-26T09:44:25.757Z,1516.00
2023-04-26T09:45:25.026Z,1524.00
2023-04-26T09:46:25.232Z,1632.00
2023-04-26T09:47:25.055Z,1658.00
2023-04-26T09:48:25.026Z,1748.00
2023-04-26T09:49:25.108Z,1783.00
2023-04-26T09:50:25.744Z,1798.00
2023-04-26T09:51:25.006Z,1830.00
2023-04-26T09:52:25.004Z,1806.00
2023-04-26T09:53:25.070Z,1811.00
2023-04-26T09:54:24.979Z,1829.00
2023-04-26T09:55:34.038Z,1818.00
2023-04-26T09:56:25.984Z,1725.00
2023-04-26T09:57:26.673Z,1699.00
2023-04-26T09:58:24.953Z,1683.00
2023-04-26T09:59:24.920Z,1708.00
2023-04-26T10:00:25.757Z,1647.00
2023-04-26T10:01:25.877Z,1692.00
2023-04-26T10:02:25.012Z,1694.00
2023-04-26T10:03:25.777Z,1693.00
2023-04-26T10:04:24.888Z,1722.00
2023-04-26T10:05:24.845Z,1752.00
2023-04-26T10:06:24.842Z,1778.00
2023-04-26T10:07:24.840Z,1817.00
2023-04-26T10:08:24.802Z,1824.00
2023-04-26T10:09:29.953Z,1775.00
2023-04-26T10:10:24.829Z,1742.00
2023-04-26T10:11:24.799Z,1680.00
2023-04-26T10:12:24.782Z,1689.00
2023-04-26T10:13:24.769Z,1667.00
2023-04-26T10:14:24.728Z,1637.00
2023-04-26T10:15:24.736Z,1663.00
2023-04-26T10:16:24.752Z,1625.00
2023-04-26T10:17:24.725Z,1679.00
2023-04-26T10:18:24.711Z,1676.00
2023-04-26T10:19:24.685Z,1765.00
2023-04-26T10:20:24.665Z,1743.00
2023-04-26T10:21:24.683Z,1759.00
2023-04-26T10:22:24.625Z,1724.00
2023-04-26T10:23:24.609Z,1746.00
2023-04-26T10:24:24.694Z,1725.00
2023-04-26T10:25:24.618Z,1806.00
2023-04-26T10:26:24.569Z,1818.00
2023-04-26T10:27:24.578Z,1814.00
2023-04-26T10:28:24.553Z,1866.00
2023-04-26T10:29:24.579Z,1891.00
2023-04-26T10:30:24.534Z,1916.00
2023-04-26T10:31:24.554Z,1964.00
2023-04-26T10:32:24.510Z,1972.00
2023-04-26T10:33:24.563Z,1965.00
2023-04-26T10:34:24.514Z,1978.00
2023-04-26T10:35:24.525Z,1935.00
2023-04-26T10:36:24.551Z,1960.00
2023-04-26T10:37:24.555Z,1927.00
2023-04-26T10:38:24.601Z,1953.00
2023-04-26T10:39:24.584Z,1950.00
2023-04-26T10:40:24.719Z,1896.00
2023-04-26T10:41:24.769Z,1999.00
2023-04-26T10:42:25.459Z,1905.00
2023-04-26T10:43:26.091Z,1829.00
2023-04-26T10:44:24.692Z,1885.00
2023-04-26T10:45:24.826Z,2075.00
2023-04-26T10:46:24.759Z,2169.00
2023-04-26T10:47:24.813Z,2050.00
2023-04-26T10:48:24.820Z,1925.00
2023-04-26T10:49:26.651Z,1862.00
2023-04-26T10:50:24.892Z,1660.00
2023-04-26T10:51:24.939Z,1638.00
2023-04-26T10:52:24.936Z,1559.00
2023-04-26T10:53:24.974Z,1544.00
2023-04-26T10:54:25.000Z,1508.00
2023-04-26T10:55:25.549Z,1506.00
2023-04-26T10:56:25.101Z,1481.00
2023-04-26T10:57:25.072Z,1512.00
2023-04-26T10:58:25.095Z,1459.00
2023-04-26T10:59:39.681Z,1444.00
2023-04-26T11:00:27.047Z,1390.00
2023-04-26T11:01:25.117Z,1355.00
2023-04-26T11:02:25.138Z,1383.00
2023-04-26T11:03:25.194Z,1397.00
2023-04-26T11:04:25.127Z,1359.00
2023-04-26T11:05:25.484Z,1393.00
2023-04-26T11:06:25.015Z,1450.00
2023-04-26T11:07:24.994Z,1477.00
2023-04-26T11:08:24.966Z,1539.00
2023-04-26T11:09:24.945Z,1559.00
2023-04-26T11:10:25.794Z,1591.00
2023-04-26T11:11:24.891Z,1600.00
2023-04-26T11:12:24.857Z,1669.00
2023-04-26T11:13:24.825Z,1721.00
2023-04-26T11:14:24.793Z,1750.00
2023-04-26T11:15:24.763Z,1781.00
2023-04-26T11:16:24.795Z,1783.00
2023-04-26T11:17:24.696Z,1756.00
2023-04-26T11:18:24.650Z,1717.00
2023-04-26T11:19:24.627Z,1691.00
2023-04-26T11:20:24.582Z,1754.00
2023-04-26T11:21:24.559Z,1748.00
2023-04-26T11:22:24.557Z,1810.00
2023-04-26T11:23:24.482Z,1837.00
2023-04-26T11:24:24.436Z,1855.00
2023-04-26T11:25:24.410Z,1861.00
2023-04-26T11:26:24.364Z,1846.00
2023-04-26T11:27:24.324Z,1880.00
2023-04-26T11:28:24.295Z,1903.00
2023-04-26T11:29:24.267Z,1932.00
2023-04-26T11:30:24.254Z,1924.00
2023-04-26T11:31:24.257Z,1903.00
2023-04-26T11:32:24.127Z,1920.00
2023-04-26T11:33:24.115Z,1907.00
2023-04-26T11:34:24.044Z,1923.00
2023-04-26T11:35:24.015Z,1926.00
2023-04-26T11:36:23.975Z,1839.00
2023-04-26T11:37:23.963Z,1876.00
2023-04-26T11:38:23.971Z,1890.00
2023-04-26T11:39:24.001Z,1910.00
2023-04-26T11:40:24.018Z,1888.00
2023-04-26T11:41:24.043Z,1911.00
2023-04-26T11:42:24.048Z,1904.00
2023-04-26T11:43:24.084Z,1910.00
2023-04-26T11:44:24.120Z,1883.00
2023-04-26T11:45:24.309Z,1869.00
2023-04-26T11:46:24.249Z,1870.00
2023-04-26T11:47:24.191Z,1867.00
2023-04-26T11:48:24.213Z,1864.00
2023-04-26T11:49:24.215Z,1866.00
2023-04-26T11:50:24.255Z,1877.00
2023-04-26T11:51:24.298Z,1878.00
2023-04-26T11:52:24.301Z,1878.00
2023-04-26T11:53:24.349Z,1885.00
2023-04-26T11:54:24.366Z,1868.00
2023-04-26T11:55:24.404Z,1861.00
2023-04-26T11:56:24.433Z,1854.00
2023-04-26T11:57:24.446Z,1846.00
2023-04-26T11:58:24.479Z,1829.00
2023-04-26T11:59:24.495Z,1824.00
2023-04-26T12:00:24.504Z,1807.00
2023-04-26T12:01:24.571Z,1824.00
2023-04-26T12:02:24.677Z,1844.00
2023-04-26T12:03:24.755Z,1874.00
2023-04-26T12:04:25.959Z,1869.00
2023-04-26T12:05:24.676Z,1872.00
2023-04-26T12:06:24.542Z,1880.00
2023-04-26T12:07:24.499Z,1867.00
2023-04-26T12:08:24.477Z,1870.00
2023-04-26T12:09:24.442Z,1821.00
2023-04-26T12:10:24.409Z,1793.00
2023-04-26T12:11:24.414Z,1788.00
2023-04-26T12:12:24.428Z,1787.00
2023-04-26T12:13:24.340Z,1778.00
2023-04-26T12:14:24.302Z,1802.00
2023-04-26T12:15:24.271Z,1784.00
2023-04-26T12:16:26.683Z,1793.00
2023-04-26T12:17:24.361Z,1793.00
2023-04-26T12:18:24.190Z,1795.00
2023-04-26T12:19:24.151Z,1799.00
2023-04-26T12:20:24.118Z,1797.00
2023-04-26T12:21:24.091Z,1817.00